createdAt,value
2023-03-12T00:00:13.156Z,4.89
2023-03-12T00:02:39.892Z,4.89
2023-03-12T00:05:08.716Z,4.90
2023-03-12T00:07:35.465Z,4.91
2023-03-12T00:10:02.347Z,5.06
2023-03-12T00:12:28.894Z,4.95
2023-03-12T00:14:55.549Z,5.03
2023-03-12T00:17:24.574Z,5.03
2023-03-12T00:19:51.903Z,4.99
2023-03-12T00:22:20.282Z,4.93
2023-03-12T00:24:50.691Z,5.08
2023-03-12T00:27:17.490Z,5.09
2023-03-12T00:29:44.193Z,5.15
2023-03-12T00:32:10.827Z,5.16
2023-03-12T00:34:37.673Z,5.13
2023-03-12T00:37:04.397Z,5.09
2023-03-12T00:39:32.640Z,5.21
2023-03-12T00:41:59.205Z,5.22
2023-03-12T00:44:25.839Z,5.31
2023-03-12T00:46:52.767Z,5.37
2023-03-12T00:49:19.418Z,5.33
2023-03-12T00:51:45.965Z,5.29
2023-03-12T00:54:12.598Z,5.31
2023-03-12T00:56:40.602Z,5.33
2023-03-12T00:59:07.201Z,5.35
2023-03-12T01:01:33.748Z,5.37
2023-03-12T01:04:00.464Z,5.44
2023-03-12T01:06:27.235Z,5.31
2023-03-12T01:08:53.921Z,5.25
2023-03-12T01:11:21.193Z,5.02
2023-03-12T01:13:49.632Z,5.16
2023-03-12T01:16:16.390Z,5.10
2023-03-12T01:18:45.175Z,5.11
2023-03-12T01:21:11.757Z,5.15
2023-03-12T01:23:38.546Z,5.11
2023-03-12T01:26:05.145Z,5.25
2023-03-12T01:28:31.804Z,5.19
2023-03-12T01:31:06.628Z,5.07
2023-03-12T01:33:33.443Z,5.12
2023-03-12T01:36:00.501Z,5.14
2023-03-12T01:38:27.203Z,5.03
2023-03-12T01:40:53.787Z,5.06
2023-03-12T01:43:28.152Z,5.15
2023-03-12T01:46:16.974Z,5.19
2023-03-12T01:48:47.844Z,5.01
2023-03-12T01:51:16.875Z,5.16
2023-03-12T01:53:48.109Z,5.13
2023-03-12T01:56:16.597Z,5.17
2023-03-12T01:58:47.220Z,5.18
2023-03-12T02:01:17.811Z,5.13
2023-03-12T02:03:47.552Z,4.94
2023-03-12T02:06:15.773Z,5.02
2023-03-12T02:08:45.561Z,5.18
2023-03-12T02:11:12.555Z,5.25
2023-03-12T02:13:39.557Z,5.37
2023-03-12T02:16:06.646Z,5.31
2023-03-12T02:18:35.862Z,5.19
2023-03-12T02:21:13.643Z,5.11
2023-03-12T02:23:45.503Z,5.09
2023-03-12T02:26:14.789Z,5.19
2023-03-12T02:28:43.282Z,5.05
2023-03-12T02:31:12.871Z,5.01
2023-03-12T02:33:39.708Z,5.09
2023-03-12T02:36:06.646Z,5.12
2023-03-12T02:38:39.132Z,5.31
2023-03-12T02:41:11.314Z,5.26
2023-03-12T02:43:40.555Z,5.30
2023-03-12T02:46:08.799Z,5.25
2023-03-12T02:48:35.698Z,5.17
2023-03-12T02:51:02.457Z,5.34
2023-03-12T02:53:29.126Z,5.13
2023-03-12T02:55:55.684Z,5.25
2023-03-12T02:58:22.467Z,5.47
2023-03-12T03:00:50.413Z,5.50
2023-03-12T03:03:17.318Z,5.29
2023-03-12T03:05:43.925Z,5.33
2023-03-12T03:08:10.811Z,4.79
2023-03-12T03:10:37.412Z,5.10
2023-03-12T03:13:04.013Z,5.09
2023-03-12T03:15:30.959Z,5.15
2023-03-12T03:17:58.920Z,5.33
2023-03-12T03:20:25.550Z,5.30
2023-03-12T03:22:52.243Z,5.38
2023-03-12T03:25:18.954Z,5.32
2023-03-12T03:27:45.800Z,5.11
2023-03-12T03:30:12.640Z,5.32
2023-03-12T03:32:39.274Z,5.17
2023-03-12T03:35:08.433Z,5.21
2023-03-12T03:37:37.690Z,5.41
2023-03-12T03:40:05.282Z,5.42
2023-03-12T03:42:32.074Z,5.40
2023-03-12T03:44:58.668Z,5.54
2023-03-12T03:47:25.078Z,5.41
2023-03-12T03:49:51.707Z,5.29
2023-03-12T03:52:19.668Z,5.44
2023-03-12T03:54:46.246Z,5.53
2023-03-12T03:57:12.832Z,5.60
2023-03-12T03:59:39.415Z,5.50
2023-03-12T04:02:05.993Z,5.64
2023-03-12T04:04:32.546Z,5.29
2023-03-12T04:06:59.332Z,5.42
2023-03-12T04:09:27.236Z,5.42
2023-03-12T04:11:53.963Z,5.29
2023-03-12T04:14:20.524Z,5.25
2023-03-12T04:16:47.271Z,5.22
2023-03-12T04:19:13.910Z,5.44
2023-03-12T04:21:40.601Z,5.39
2023-03-12T04:24:07.988Z,5.40
2023-03-12T04:26:35.922Z,5.45
2023-03-12T04:29:02.461Z,5.59
2023-03-12T04:31:29.412Z,5.54
2023-03-12T04:33:55.945Z,5.45
2023-03-12T04:36:23.492Z,5.46
2023-03-12T04:38:50.740Z,5.59
2023-03-12T04:41:17.887Z,5.40
2023-03-12T04:43:46.355Z,5.54
2023-03-12T04:46:13.081Z,5.42
2023-03-12T04:48:39.698Z,5.54
2023-03-12T04:51:06.263Z,5.58
2023-03-12T04:53:33.091Z,5.67
2023-03-12T04:55:59.732Z,5.71
2023-03-12T04:58:26.556Z,5.75
2023-03-12T05:00:54.535Z,5.63
2023-03-12T05:03:21.125Z,5.31
2023-03-12T05:05:47.780Z,5.33
2023-03-12T05:08:14.415Z,5.25
2023-03-12T05:10:41.174Z,4.86
2023-03-12T05:13:14.072Z,4.99
2023-03-12T05:15:40.756Z,4.98
2023-03-12T05:18:08.689Z,5.11
2023-03-12T05:20:35.268Z,5.25
2023-03-12T05:23:01.871Z,5.16
2023-03-12T05:25:28.602Z,5.30
2023-03-12T05:27:55.278Z,5.21
2023-03-12T05:30:21.942Z,4.96
2023-03-12T05:32:48.874Z,5.32
2023-03-12T05:35:17.025Z,5.13
2023-03-12T05:37:44.200Z,4.96
2023-03-12T05:40:12.445Z,5.10
2023-03-12T05:42:39.393Z,4.95
2023-03-12T05:45:07.622Z,4.94
2023-03-12T05:47:34.315Z,5.03
2023-03-12T05:50:00.903Z,5.14
2023-03-12T05:52:28.838Z,5.19
2023-03-12T05:54:55.706Z,5.08
2023-03-12T05:57:22.242Z,4.89
2023-03-12T05:59:48.780Z,4.88
2023-03-12T06:02:15.408Z,5.04
2023-03-12T06:04:41.960Z,5.26
2023-03-12T06:07:08.631Z,5.04
2023-03-12T06:09:36.839Z,5.05
2023-03-12T06:12:03.982Z,5.25
2023-03-12T06:14:30.544Z,5.20
2023-03-12T06:16:57.201Z,5.25
2023-03-12T06:19:23.818Z,5.21
2023-03-12T06:21:50.879Z,5.13
2023-03-12T06:24:17.446Z,5.11
2023-03-12T06:26:45.499Z,4.99
2023-03-12T06:29:12.083Z,5.12
2023-03-12T06:31:39.102Z,4.99
2023-03-12T06:34:05.915Z,4.84
2023-03-12T06:36:32.520Z,4.68
2023-03-12T06:38:59.085Z,4.76
2023-03-12T06:41:25.673Z,4.76
2023-03-12T06:43:53.770Z,4.66
2023-03-12T06:46:20.810Z,5.03
2023-03-12T06:48:48.294Z,4.96
2023-03-12T06:51:16.574Z,5.03
2023-03-12T06:53:43.484Z,4.78
2023-03-12T06:56:11.213Z,4.86
2023-03-12T06:58:38.481Z,5.25
2023-03-12T07:01:06.905Z,5.34
2023-03-12T07:03:34.078Z,5.54
2023-03-12T07:06:00.750Z,5.37
2023-03-12T07:08:28.614Z,5.26
2023-03-12T07:10:55.169Z,5.29
2023-03-12T07:13:21.703Z,5.42
2023-03-12T07:15:48.816Z,5.28
2023-03-12T07:18:17.133Z,5.32
2023-03-12T07:20:43.943Z,5.54
2023-03-12T07:23:11.229Z,5.50
2023-03-12T07:25:39.284Z,5.51
2023-03-12T07:28:07.472Z,5.82
2023-03-12T07:30:34.670Z,5.68
2023-03-12T07:33:01.694Z,5.68
2023-03-12T07:35:30.504Z,5.75
2023-03-12T07:37:58.367Z,5.77
2023-03-12T07:40:25.085Z,5.84
2023-03-12T07:42:52.150Z,5.87
2023-03-12T07:45:19.994Z,5.76
2023-03-12T07:47:47.476Z,5.56
2023-03-12T07:50:14.914Z,5.40
2023-03-12T07:52:42.868Z,5.39
2023-03-12T07:55:10.435Z,5.68
2023-03-12T07:57:37.529Z,5.59
2023-03-12T08:00:05.782Z,5.78
2023-03-12T08:02:32.531Z,5.62
2023-03-12T08:04:59.345Z,5.79
2023-03-12T08:07:26.243Z,6.22
2023-03-12T08:09:54.469Z,6.28
2023-03-12T08:12:21.125Z,6.33
2023-03-12T08:14:47.944Z,6.58
2023-03-12T08:17:14.583Z,6.15
2023-03-12T08:19:41.299Z,5.95
2023-03-12T08:22:08.064Z,6.12
2023-03-12T08:24:34.937Z,6.31
2023-03-12T08:27:03.057Z,6.11
2023-03-12T08:29:29.727Z,6.43
2023-03-12T08:32:04.418Z,6.58
2023-03-12T08:34:32.206Z,6.49
2023-03-12T08:36:58.846Z,6.66
2023-03-12T08:39:25.577Z,6.79
2023-03-12T08:41:52.373Z,6.88
2023-03-12T08:44:20.325Z,7.25
2023-03-12T08:46:46.894Z,7.32
2023-03-12T08:49:13.922Z,7.39
2023-03-12T08:51:40.463Z,7.65
2023-03-12T08:54:07.061Z,7.54
2023-03-12T08:56:33.792Z,7.44
2023-03-12T08:59:00.380Z,7.61
2023-03-12T09:01:28.925Z,7.44
2023-03-12T09:03:55.604Z,7.38
2023-03-12T09:06:22.262Z,7.63
2023-03-12T09:08:48.860Z,7.35
2023-03-12T09:11:16.022Z,7.45
2023-03-12T09:14:08.189Z,7.18
2023-03-12T09:16:30.938Z,7.21
2023-03-12T09:18:57.619Z,7.31
2023-03-12T09:21:24.142Z,6.95
2023-03-12T09:23:51.057Z,7.18
2023-03-12T09:26:17.766Z,7.09
2023-03-12T09:28:44.384Z,7.07
2023-03-12T09:31:11.069Z,6.97
2023-03-12T09:33:39.163Z,7.28
2023-03-12T09:36:06.805Z,7.19
2023-03-12T09:38:33.755Z,7.26
2023-03-12T09:41:00.362Z,7.54
2023-03-12T09:43:32.344Z,7.51
2023-03-12T09:46:00.238Z,7.37
2023-03-12T09:48:32.056Z,7.18
2023-03-12T09:51:02.726Z,7.26
2023-03-12T09:53:33.379Z,7.54
2023-03-12T09:56:04.602Z,7.35
2023-03-12T09:58:32.958Z,7.47
2023-03-12T10:01:09.010Z,7.05
2023-03-12T10:03:53.357Z,7.11
2023-03-12T10:06:23.037Z,7.14
2023-03-12T10:09:01.970Z,7.26
2023-03-12T10:11:40.429Z,7.37
2023-03-12T10:14:24.223Z,7.79
2023-03-12T10:17:02.203Z,8.12
2023-03-12T10:19:55.961Z,8.39
2023-03-12T10:22:47.882Z,8.11
2023-03-12T10:25:22.457Z,7.96
2023-03-12T10:27:49.976Z,8.19
2023-03-12T10:30:19.737Z,8.20
2023-03-12T10:32:49.405Z,8.36
2023-03-12T10:35:21.194Z,8.52
2023-03-12T10:37:53.680Z,8.65
2023-03-12T10:40:23.428Z,8.71
2023-03-12T10:42:50.633Z,8.66
2023-03-12T10:45:27.770Z,8.75
2023-03-12T10:47:57.361Z,8.87
2023-03-12T10:50:25.676Z,8.79
2023-03-12T10:53:12.972Z,8.80
2023-03-12T10:55:39.805Z,9.07
2023-03-12T10:58:06.374Z,9.37
2023-03-12T11:00:33.405Z,9.35
2023-03-12T11:03:01.328Z,9.33
2023-03-12T11:05:30.020Z,9.41
2023-03-12T11:07:58.997Z,9.40
2023-03-12T11:10:27.618Z,9.42
2023-03-12T11:13:00.571Z,9.06
2023-03-12T11:15:29.386Z,9.28
2023-03-12T11:18:21.842Z,9.73
2023-03-12T11:20:49.233Z,9.67
2023-03-12T11:23:22.397Z,9.97
2023-03-12T11:25:55.295Z,10.01
2023-03-12T11:28:25.452Z,9.73
2023-03-12T11:30:56.939Z,9.92
2023-03-12T11:33:23.753Z,10.15
2023-03-12T11:36:03.970Z,10.01
2023-03-12T11:38:38.241Z,10.64
2023-03-12T11:41:18.598Z,10.83
2023-03-12T11:43:56.915Z,10.64
2023-03-12T11:46:37.066Z,10.80
2023-03-12T11:49:16.097Z,11.20
2023-03-12T11:51:51.126Z,11.31
2023-03-12T11:55:11.476Z,10.99
2023-03-12T11:57:47.150Z,10.97
2023-03-12T12:00:15.869Z,11.08
2023-03-12T12:03:23.862Z,10.98
2023-03-12T12:05:59.315Z,10.94
2023-03-12T12:08:46.418Z,10.73
2023-03-12T12:11:23.639Z,11.12
2023-03-12T12:14:02.426Z,11.20
2023-03-12T12:16:52.633Z,11.32
2023-03-12T12:19:40.877Z,11.36
2023-03-12T12:22:22.005Z,11.31
2023-03-12T12:25:06.877Z,11.36
2023-03-12T12:27:40.890Z,11.49
2023-03-12T12:30:18.978Z,11.50
2023-03-12T12:33:04.725Z,11.36
2023-03-12T12:35:35.472Z,11.83
2023-03-12T12:38:07.652Z,12.06
2023-03-12T12:40:38.047Z,11.89
2023-03-12T12:43:22.021Z,12.12
2023-03-12T12:45:52.341Z,12.39
2023-03-12T12:48:22.508Z,12.99
2023-03-12T12:50:51.767Z,13.16
2023-03-12T12:53:22.840Z,13.57
2023-03-12T12:55:58.794Z,13.78
2023-03-12T12:58:47.415Z,14.29
2023-03-12T13:01:16.095Z,14.79
2023-03-12T13:03:43.784Z,14.82
2023-03-12T13:06:10.386Z,15.24
2023-03-12T13:08:59.382Z,15.83
2023-03-12T13:11:30.323Z,16.10
2023-03-12T13:14:14.728Z,15.93
2023-03-12T13:16:43.071Z,16.08
2023-03-12T13:19:24.397Z,16.23
2023-03-12T13:22:03.892Z,16.00
2023-03-12T13:24:33.591Z,15.89
2023-03-12T13:27:08.827Z,15.80
2023-03-12T13:29:40.057Z,15.57
2023-03-12T13:32:29.965Z,15.28
2023-03-12T13:34:57.915Z,14.99
2023-03-12T13:37:47.278Z,14.75
2023-03-12T13:41:01.513Z,14.26
2023-03-12T13:43:49.883Z,14.24
2023-03-12T13:46:44.128Z,13.92
2023-03-12T13:49:15.085Z,14.22
2023-03-12T13:51:57.873Z,14.21
2023-03-12T13:54:29.512Z,14.32
2023-03-12T13:57:02.262Z,14.12
2023-03-12T13:59:31.155Z,14.34
2023-03-12T14:02:05.476Z,14.06
2023-03-12T14:04:39.466Z,14.01
2023-03-12T14:07:50.364Z,14.10
2023-03-12T14:10:29.742Z,14.20
2023-03-12T14:13:08.429Z,14.49
2023-03-12T14:15:40.099Z,14.62
2023-03-12T14:18:15.269Z,14.31
2023-03-12T14:20:50.411Z,13.68
2023-03-12T14:23:17.762Z,13.94
2023-03-12T14:25:46.027Z,13.91
2023-03-12T14:28:16.768Z,14.11
2023-03-12T14:30:50.387Z,14.03
2023-03-12T14:33:19.177Z,13.99
2023-03-12T14:35:51.121Z,14.11
2023-03-12T14:38:25.120Z,14.25
2023-03-12T14:40:56.613Z,14.42
2023-03-12T14:43:25.691Z,14.62
2023-03-12T14:45:55.483Z,14.98
2023-03-12T14:48:27.105Z,15.15
2023-03-12T14:50:56.077Z,15.18
2023-03-12T14:53:26.230Z,14.99
2023-03-12T14:56:05.348Z,15.30
2023-03-12T14:58:34.100Z,15.33
2023-03-12T15:01:03.717Z,15.00
2023-03-12T15:03:43.449Z,15.29
2023-03-12T15:06:18.131Z,15.20
2023-03-12T15:08:45.230Z,14.87
2023-03-12T15:11:12.391Z,14.99
2023-03-12T15:13:39.890Z,14.71
2023-03-12T15:16:07.641Z,14.72
2023-03-12T15:18:36.623Z,14.94
2023-03-12T15:21:03.806Z,14.93
2023-03-12T15:23:33.429Z,14.80
2023-03-12T15:26:13.269Z,14.79
2023-03-12T15:28:40.669Z,14.89
2023-03-12T15:31:12.998Z,15.04
2023-03-12T15:33:42.340Z,15.19
2023-03-12T15:36:27.031Z,15.13
2023-03-12T15:38:59.982Z,14.69
2023-03-12T15:41:31.959Z,14.84
2023-03-12T15:43:59.746Z,14.82
2023-03-12T15:46:27.418Z,14.63
2023-03-12T15:48:58.010Z,14.63
2023-03-12T15:51:33.689Z,14.83
2023-03-12T15:54:02.721Z,14.77
2023-03-12T15:56:31.284Z,14.29
2023-03-12T15:59:04.786Z,14.25
2023-03-12T16:01:44.624Z,14.19
2023-03-12T16:04:12.965Z,14.11
2023-03-12T16:06:40.014Z,14.18
2023-03-12T16:09:06.693Z,13.97
2023-03-12T16:11:36.602Z,13.88
2023-03-12T16:14:06.437Z,14.29
2023-03-12T16:16:33.626Z,14.20
2023-03-12T16:19:00.559Z,14.37
2023-03-12T16:21:28.543Z,14.43
2023-03-12T16:23:55.121Z,13.99
2023-03-12T16:26:21.758Z,14.03
2023-03-12T16:28:48.547Z,13.87
2023-03-12T16:31:16.383Z,14.06
2023-03-12T16:33:43.336Z,13.63
2023-03-12T16:36:12.922Z,13.43
2023-03-12T16:38:40.967Z,13.49
2023-03-12T16:41:11.789Z,13.63
2023-03-12T16:43:38.518Z,13.63
2023-03-12T16:46:07.899Z,13.62
2023-03-12T16:48:35.489Z,13.78
2023-03-12T16:51:02.286Z,13.72
2023-03-12T16:53:29.145Z,13.66
2023-03-12T16:55:59.089Z,13.62
2023-03-12T16:58:28.376Z,13.57
2023-03-12T17:00:55.847Z,13.67
2023-03-12T17:03:30.402Z,13.55
2023-03-12T17:05:57.455Z,13.39
2023-03-12T17:08:24.499Z,13.35
2023-03-12T17:10:51.295Z,13.30
2023-03-12T17:13:22.330Z,13.42
2023-03-12T17:15:49.854Z,13.19
2023-03-12T17:18:16.856Z,13.18
2023-03-12T17:20:43.910Z,13.29
2023-03-12T17:23:13.778Z,13.24
2023-03-12T17:25:45.993Z,13.10
2023-03-12T17:28:13.234Z,13.31
2023-03-12T17:30:41.291Z,13.17
2023-03-12T17:33:20.712Z,13.21
2023-03-12T17:36:09.521Z,12.76
2023-03-12T17:38:37.037Z,12.96
2023-03-12T17:41:07.511Z,12.79
2023-03-12T17:43:36.229Z,13.01
2023-03-12T17:46:06.283Z,12.95
2023-03-12T17:48:33.010Z,12.90
2023-03-12T17:50:59.622Z,13.02
2023-03-12T17:53:26.396Z,13.05
2023-03-12T17:55:52.970Z,13.05
2023-03-12T17:58:19.613Z,12.80
2023-03-12T18:00:46.207Z,12.91
2023-03-12T18:03:14.301Z,12.98
2023-03-12T18:05:40.984Z,12.98
2023-03-12T18:08:07.783Z,12.96
2023-03-12T18:10:34.585Z,12.86
2023-03-12T18:13:01.334Z,12.96
2023-03-12T18:15:30.310Z,12.74
2023-03-12T18:17:57.507Z,12.91
2023-03-12T18:20:36.177Z,12.74
2023-03-12T18:23:05.049Z,12.68
2023-03-12T18:25:31.710Z,12.82
2023-03-12T18:27:58.626Z,12.48
2023-03-12T18:30:25.746Z,12.61
2023-03-12T18:32:52.458Z,12.53
2023-03-12T18:35:19.219Z,12.76
2023-03-12T18:37:47.294Z,12.72
2023-03-12T18:40:14.308Z,12.75
2023-03-12T18:42:40.973Z,12.60
2023-03-12T18:45:08.152Z,12.44
2023-03-12T18:47:34.897Z,12.60
2023-03-12T18:50:01.537Z,12.42
2023-03-12T18:52:28.195Z,12.30
2023-03-12T18:54:56.232Z,12.54
2023-03-12T18:57:24.448Z,12.65
2023-03-12T18:59:51.090Z,12.65
2023-03-12T19:02:17.704Z,12.51
2023-03-12T19:04:44.434Z,12.37
2023-03-12T19:07:11.163Z,12.46
2023-03-12T19:09:37.909Z,12.42
2023-03-12T19:12:06.312Z,12.16
2023-03-12T19:14:33.511Z,12.50
2023-03-12T19:17:00.144Z,12.51
2023-03-12T19:19:26.803Z,12.48
2023-03-12T19:21:53.536Z,12.42
2023-03-12T19:24:20.423Z,12.62
2023-03-12T19:26:47.050Z,12.69
2023-03-12T19:29:15.068Z,12.68
2023-03-12T19:31:42.119Z,12.67
2023-03-12T19:34:09.630Z,12.53
2023-03-12T19:36:36.197Z,12.84
2023-03-12T19:39:06.757Z,12.83
2023-03-12T19:41:42.361Z,12.81
2023-03-12T19:44:09.212Z,12.80
2023-03-12T19:46:38.836Z,12.82
2023-03-12T19:49:05.739Z,12.90
2023-03-12T19:51:32.528Z,12.84
2023-03-12T19:53:59.341Z,12.66
2023-03-12T19:56:26.063Z,12.69
2023-03-12T19:58:52.825Z,12.86
2023-03-12T20:01:19.394Z,12.89
2023-03-12T20:03:47.475Z,12.73
2023-03-12T20:06:14.100Z,12.77
2023-03-12T20:08:43.798Z,12.69
2023-03-12T20:11:11.229Z,12.65
2023-03-12T20:13:38.054Z,12.58
2023-03-12T20:16:05.806Z,12.55
2023-03-12T20:18:32.408Z,12.46
2023-03-12T20:21:00.419Z,12.63
2023-03-12T20:23:28.786Z,12.48
2023-03-12T20:25:55.845Z,12.64
2023-03-12T20:28:22.486Z,12.56
2023-03-12T20:30:49.162Z,12.59
2023-03-12T20:33:19.252Z,12.44
2023-03-12T20:35:45.952Z,12.58
2023-03-12T20:38:18.714Z,12.52
2023-03-12T20:40:45.736Z,12.55
2023-03-12T20:43:12.436Z,12.61
2023-03-12T20:45:39.117Z,12.64
2023-03-12T20:48:06.429Z,12.48
2023-03-12T20:50:33.321Z,12.50
2023-03-12T20:52:59.967Z,12.31
2023-03-12T20:55:27.928Z,12.34
2023-03-12T20:57:54.529Z,12.20
2023-03-12T21:00:21.938Z,12.38
2023-03-12T21:02:52.340Z,12.26
2023-03-12T21:05:18.978Z,12.21
2023-03-12T21:07:45.599Z,12.23
2023-03-12T21:10:12.381Z,11.97
2023-03-12T21:12:40.490Z,12.24
2023-03-12T21:15:08.691Z,12.22
2023-03-12T21:17:37.167Z,12.33
2023-03-12T21:20:05.047Z,12.05
2023-03-12T21:22:31.724Z,12.06
2023-03-12T21:24:58.815Z,12.02
2023-03-12T21:27:25.994Z,12.05
2023-03-12T21:29:53.987Z,11.94
2023-03-12T21:32:20.725Z,12.00
2023-03-12T21:34:47.711Z,12.04
2023-03-12T21:37:14.847Z,12.04
2023-03-12T21:39:41.489Z,11.88
2023-03-12T21:42:08.238Z,12.00
2023-03-12T21:44:35.042Z,12.03
2023-03-12T21:47:03.634Z,11.97
2023-03-12T21:49:30.602Z,11.99
2023-03-12T21:51:57.156Z,11.99
2023-03-12T21:54:23.776Z,11.92
2023-03-12T21:56:50.282Z,11.78
2023-03-12T21:59:16.874Z,11.97
2023-03-12T22:01:43.485Z,11.82
2023-03-12T22:04:11.530Z,11.82
2023-03-12T22:06:38.159Z,11.72
2023-03-12T22:09:04.722Z,11.69
2023-03-12T22:11:31.299Z,11.75
2023-03-12T22:13:58.136Z,11.68
2023-03-12T22:16:24.879Z,11.53
2023-03-12T22:18:52.701Z,11.48
2023-03-12T22:21:22.131Z,11.69
2023-03-12T22:23:49.966Z,11.61
2023-03-12T22:26:17.173Z,11.67
2023-03-12T22:28:48.643Z,11.67
2023-03-12T22:31:15.300Z,11.63
2023-03-12T22:33:41.954Z,11.45
2023-03-12T22:36:10.203Z,11.47
2023-03-12T22:38:39.026Z,11.48
2023-03-12T22:41:14.191Z,11.67
2023-03-12T22:43:41.191Z,11.45
2023-03-12T22:46:08.084Z,11.73
2023-03-12T22:48:34.741Z,11.70
2023-03-12T22:51:01.557Z,11.51
2023-03-12T22:53:29.313Z,11.27
2023-03-12T22:55:58.217Z,11.29
2023-03-12T22:58:25.125Z,11.50
2023-03-12T23:01:01.281Z,11.51
2023-03-12T23:03:28.922Z,11.66
2023-03-12T23:05:55.966Z,11.65
2023-03-12T23:08:22.985Z,11.59
2023-03-12T23:10:56.767Z,11.45
2023-03-12T23:13:26.077Z,11.50
2023-03-12T23:15:53.052Z,11.47
2023-03-12T23:18:20.340Z,11.59
2023-03-12T23:20:47.329Z,11.43
2023-03-12T23:23:13.971Z,11.76
2023-03-12T23:25:40.721Z,11.68
2023-03-12T23:28:07.399Z,11.76
2023-03-12T23:30:35.404Z,11.73
2023-03-12T23:33:02.176Z,11.64
2023-03-12T23:35:29.090Z,11.64
2023-03-12T23:37:55.810Z,11.85
2023-03-12T23:40:23.601Z,11.76
2023-03-12T23:42:50.236Z,11.77
2023-03-12T23:45:17.033Z,11.92
2023-03-12T23:47:45.173Z,11.96
2023-03-12T23:50:12.714Z,11.89
2023-03-12T23:52:42.166Z,11.92
2023-03-12T23:55:09.396Z,11.90
2023-03-12T23:57:36.264Z,11.92
